Agana Heights, GU

4:41 PM ChST on December 19, 2014 (GMT +1000)
Rota I International | Change Station
CLOSE
Current Station
Airport
Location: Rota,
Elevation: 607 ft
Nearby Weather Stations

Elev 607 ft 14.17 °N, 145.24 °E | Updated 51 minutes ago

Light Rain
Light Rain
77 °F
Feels Like 77 °F
N
20
Wind Variable Wind from NE
Gusts 36 mph

Today
High -- | Low -- °F
--% Chance of Precip.
Yesterday
High -- | Low -- °F
Precip. -- in
6:37 AM 5:57 PM
Waning Crescent, 9% visible
Pressure 29.92 in
Visibility 7.0 miles
Clouds Scattered Clouds 2200 ft
Mostly Cloudy 4000 ft
Mostly Cloudy 10000 ft
Dew Point 72 °F
Humidity 83%
Rainfall 0.00 in
Snow Depth Not available.
UV 2 out of 12
Pollen Not available.
Air Quality Not available.
Flu Activity Not available.
METAR PGRO 190550Z 05017G31KT 7SM -RA SCT022 BKN040 BKN100 25/22 A2992

More Conditions Fewer Conditions

Pressure 29.92 in
Visibility 7.0 miles
Clouds Scattered Clouds 2200 ft
Mostly Cloudy 4000 ft
Mostly Cloudy 10000 ft
Dew Point 72 °F
Humidity 83%
Rainfall 0.00 in
Snow Depth Not available.
UV 2 out of 12
Pollen Not available.
Air Quality Not available.
Flu Activity Not available.
METAR PGRO 190550Z 05017G31KT 7SM -RA SCT022 BKN040 BKN100 25/22 A2992

More Conditions Fewer Conditions

10-Day Weather Forecast

Almanac

Astronomy

Dec. 19, 2014 Rise Set
Actual Time
Civil Twilight
Nautical Twilight
Astronomical Twilight
Moon
Length of Visible Light
Length of Day
Tomorrow will be .
, % of the Moon is Illuminated

Today's Extremes

State Highs State Lows

Community

WunderPhotos

Upload Photos

1,778,952 photos uploaded!

WunderBlogs® & News

Nearby

Air Quality

  Air Quality AQ Index Pollutant
Not available.

Snow Depth

Station Depth Elevation

Earthquake Activity

City Distance Mag. Time & Date
Minimum magnitude displayed is 2.5.

Coastal Water Temperatures

Place Temperature

Nearby Weather Stations